»·PEaware :: N7CM KSAN-KPSP

N7CM :: KSAN-KPSP

FLIGHT INFORMATION

Flight Status: Arrived
Operator: Privately registered:
United States
More flights under this callsign
Pilot: Carlos D. (29349)
Aircraft: CESSNA 550 CITATION 2/S2/BRAVO
(C550)
More flights by this aircraft type
Origin: KSAN San Diego Intl-Lindbergh
United States
Destination: KPSP Palm Springs Intl
United States
More flights between these airports :: More routes between these airports
Route: JLI V208 TRM
File this flight plan on PilotEdge
Remarks:
Altitude:
(Current/Filed)
15,000ft
Speed:
(Current/Filed)
275kts
Departed: 02-Jan-21 05:12 PM
Arrived: 02-Jan-21 05:47 PM
Distance/Time
Traveled:
74nm/0:35
Distance/Time
To Go:
Arrived

Flight Plot

Page will automatically refresh every two minutes.


Map Options




Map Legend


Flown Route
Filed Route
Departure Airport
Arrival Airport
Navaid (VOR, NDB)
Fix

Horizontal Profiles

Position Reports

Time Latitude Longitude Heading Altitude Ground
Speed
02-Jan-21 16:53 32.733565 -117.178858 17 22ft 0kts
02-Jan-21 16:54 32.733565 -117.178858 17 22ft 0kts
02-Jan-21 16:56 32.733565 -117.178858 17 22ft 0kts
02-Jan-21 16:57 32.733565 -117.178858 17 22ft 0kts
02-Jan-21 16:58 32.733565 -117.178858 17 22ft 0kts
02-Jan-21 16:59 32.733565 -117.178858 17 22ft 0kts
02-Jan-21 17:00 32.733565 -117.178858 17 22ft 0kts
02-Jan-21 17:01 32.733565 -117.178858 17 22ft 0kts
02-Jan-21 17:02 32.733565 -117.178858 17 22ft 0kts
02-Jan-21 17:03 32.733565 -117.178858 17 22ft 0kts
02-Jan-21 17:04 32.733565 -117.178858 17 22ft 0kts
02-Jan-21 17:05 32.732971 -117.179424 189 22ft 6kts
02-Jan-21 17:06 32.732084 -117.178852 105 22ft 3kts
02-Jan-21 17:07 32.731714 -117.177380 106 22ft 3kts
02-Jan-21 17:08 32.731143 -117.175716 143 22ft 0kts
02-Jan-21 17:09 32.731143 -117.175716 143 22ft 0kts
02-Jan-21 17:09 32.731143 -117.175716 143 22ft 0kts
02-Jan-21 17:11 32.730360 -117.175321 195 22ft 7kts
02-Jan-21 17:12 32.733744 -117.189794 288 231ft 121kts
02-Jan-21 17:12 32.747517 -117.222630 302 2194ft 146kts
02-Jan-21 17:13 32.771528 -117.266406 302 3987ft 194kts
02-Jan-21 17:15 32.805251 -117.331128 282 3975ft 193kts
02-Jan-21 17:15 32.774137 -117.355026 192 6873ft 169kts
02-Jan-21 17:16 32.718559 -117.363130 191 7982ft 240kts
02-Jan-21 17:17 32.637765 -117.377079 191 7980ft 308kts
02-Jan-21 17:18 32.582612 -117.356433 86 11351ft 224kts
02-Jan-21 17:19 32.626949 -117.317839 14 12967ft 217kts
02-Jan-21 17:20 32.677774 -117.273345 45 14987ft 285kts
02-Jan-21 17:21 32.733794 -117.190471 46 14985ft 333kts
02-Jan-21 17:22 32.791848 -117.104753 46 14981ft 334kts
02-Jan-21 17:23 32.849912 -117.018838 46 14978ft 333kts
02-Jan-21 17:24 32.907952 -116.932764 46 14975ft 333kts
02-Jan-21 17:25 32.965813 -116.846758 46 14970ft 332kts
02-Jan-21 17:26 33.023596 -116.760652 46 14970ft 333kts
02-Jan-21 17:27 33.081371 -116.674356 45 14971ft 334kts
02-Jan-21 17:28 33.140626 -116.588415 35 14975ft 331kts
02-Jan-21 17:29 33.213576 -116.522488 30 15007ft 329kts
02-Jan-21 17:30 33.287644 -116.458084 30 14994ft 330kts
02-Jan-21 17:31 33.361971 -116.393306 30 14986ft 330kts
02-Jan-21 17:32 33.436052 -116.328638 30 14980ft 330kts
02-Jan-21 17:33 33.508885 -116.264770 30 14715ft 301kts
02-Jan-21 17:34 33.570744 -116.210554 29 12691ft 257kts
02-Jan-21 17:35 33.627788 -116.182451 316 9881ft 195kts
02-Jan-21 17:36 33.644618 -116.231695 280 6999ft 154kts
02-Jan-21 17:37 33.656000 -116.281445 280 4151ft 157kts
02-Jan-21 17:38 33.665686 -116.323222 278 3982ft 114kts
02-Jan-21 17:39 33.675378 -116.361305 301 3987ft 123kts
02-Jan-21 17:40 33.703330 -116.391194 319 3457ft 140kts
02-Jan-21 17:41 33.733250 -116.418807 321 2712ft 136kts
02-Jan-21 17:42 33.762483 -116.445777 322 1964ft 131kts
02-Jan-21 17:43 33.790621 -116.471787 322 1255ft 119kts
02-Jan-21 17:44 33.813961 -116.493384 323 660ft 103kts
02-Jan-21 17:45 33.833473 -116.511030 327 439ft 59kts
02-Jan-21 17:46 33.839599 -116.516470 325 466ft 14kts
02-Jan-21 17:47 33.839629 -116.517719 212 471ft 0kts

Navigation Log

Ident Type
Flight plan parsing failed, navigation log unavailable